createdAt,value
2017-04-22T00:00:02.503Z,34.82
2017-04-22T00:01:02.837Z,34.42
2017-04-22T00:02:02.862Z,35.38
2017-04-22T00:03:02.886Z,34.8
2017-04-22T00:04:02.930Z,34.9
2017-04-22T00:05:02.630Z,34.8
2017-04-22T00:06:02.653Z,34.9
2017-04-22T00:07:02.689Z,35.1
2017-04-22T00:08:03.024Z,35.1
2017-04-22T00:09:03.052Z,34.9
2017-04-22T00:10:02.759Z,34.22
2017-04-22T00:11:03.097Z,34.9
2017-04-22T00:12:03.133Z,34.9
2017-04-22T00:13:03.152Z,34.8
2017-04-22T00:14:03.185Z,35
2017-04-22T00:15:03.212Z,34.9
2017-04-22T00:16:03.245Z,35
2017-04-22T00:17:03.261Z,34.7
2017-04-22T00:18:03.296Z,35
2017-04-22T00:19:03.004Z,34.9
2017-04-22T00:20:03.354Z,34.8
2017-04-22T00:21:03.373Z,34.7
2017-04-22T00:22:03.399Z,34.61
2017-04-22T00:23:03.114Z,34.61
2017-04-22T00:24:03.136Z,34.8
2017-04-22T00:25:03.484Z,34.8
2017-04-22T00:26:03.509Z,34.61
2017-04-22T00:27:03.537Z,34.61
2017-04-22T00:28:03.251Z,34.7
2017-04-22T00:29:03.277Z,34.7
2017-04-22T00:30:03.612Z,34.8
2017-04-22T00:31:03.641Z,34.8
2017-04-22T00:32:03.358Z,34.8
2017-04-22T00:33:03.698Z,34.8
2017-04-22T00:34:03.721Z,34.7
2017-04-22T00:35:03.752Z,34.8
2017-04-22T00:36:03.773Z,34.7
2017-04-22T00:37:03.806Z,35
2017-04-22T00:38:03.826Z,35.19
2017-04-22T00:39:03.622Z,34.61
2017-04-22T00:40:03.570Z,34.61
2017-04-22T00:41:03.598Z,35.28
2017-04-22T00:42:03.624Z,34.7
2017-04-22T00:43:03.654Z,34.9
2017-04-22T00:44:03.991Z,34.9
2017-04-22T00:45:03.704Z,34.7
2017-04-22T00:46:04.044Z,35.1
2017-04-22T00:47:04.076Z,34.52
2017-04-22T00:48:04.098Z,34.9
2017-04-22T00:49:04.125Z,34.42
2017-04-22T00:50:04.149Z,34.52
2017-04-22T00:51:04.181Z,35
2017-04-22T00:52:04.229Z,35.28
2017-04-22T00:53:04.235Z,35.19
2017-04-22T00:54:03.951Z,34.8
2017-04-22T00:55:03.971Z,34.61
2017-04-22T00:56:04.316Z,34.7
2017-04-22T00:57:04.341Z,34.7
2017-04-22T00:58:04.047Z,34.42
2017-04-22T00:59:04.655Z,34.9
2017-04-22T01:00:04.420Z,34.8
2017-04-22T01:01:04.452Z,34.7
2017-04-22T01:02:04.481Z,35.19
2017-04-22T01:03:04.503Z,34.7
2017-04-22T01:04:04.783Z,34.42
2017-04-22T01:05:04.556Z,34.7
2017-04-22T01:06:04.681Z,34.7
2017-04-22T01:07:04.602Z,34.61
2017-04-22T01:08:04.643Z,34.59
2017-04-22T01:09:04.910Z,34.8
2017-04-22T01:10:04.695Z,34.61
2017-04-22T01:11:04.711Z,34.61
2017-04-22T01:12:04.744Z,34.42
2017-04-22T01:13:04.854Z,35
2017-04-22T01:14:05.048Z,34.8
2017-04-22T01:15:04.824Z,34.7
2017-04-22T01:16:04.852Z,34.61
2017-04-22T01:17:04.872Z,34.8
2017-04-22T01:18:04.592Z,34.8
2017-04-22T01:19:05.174Z,34.8
2017-04-22T01:20:04.959Z,34.61
2017-04-22T01:21:04.980Z,34.7
2017-04-22T01:22:05.011Z,34.7
2017-04-22T01:23:05.040Z,34.52
2017-04-22T01:24:05.312Z,34.8
2017-04-22T01:25:05.085Z,34.52
2017-04-22T01:26:05.115Z,34.52
2017-04-22T01:27:05.144Z,34.8
2017-04-22T01:28:05.184Z,34.61
2017-04-22T01:29:05.446Z,34.61
2017-04-22T01:30:05.226Z,34.61
2017-04-22T01:31:05.251Z,34.42
2017-04-22T01:32:05.280Z,34.9
2017-04-22T01:33:05.309Z,34.61
2017-04-22T01:34:05.585Z,35.28
2017-04-22T01:35:05.358Z,34.32
2017-04-22T01:36:05.387Z,35.28
2017-04-22T01:37:05.415Z,35.19
2017-04-22T01:38:05.443Z,34.61
2017-04-22T01:39:05.722Z,35.28
2017-04-22T01:40:05.180Z,34.52
2017-04-22T01:41:05.520Z,34.61
2017-04-22T01:42:05.232Z,34.61
2017-04-22T01:43:05.576Z,35.19
2017-04-22T01:44:05.602Z,34.8
2017-04-22T01:45:05.314Z,34.52
2017-04-22T01:46:05.650Z,34.52
2017-04-22T01:47:05.684Z,34.42
2017-04-22T01:48:05.707Z,34.7
2017-04-22T01:49:05.737Z,35.28
2017-04-22T01:50:05.762Z,35.1
2017-04-22T01:51:05.475Z,34.9
2017-04-22T01:52:05.816Z,35.28
2017-04-22T01:53:05.844Z,34.8
2017-04-22T01:54:05.868Z,35
2017-04-22T01:55:05.998Z,35.19
2017-04-22T01:56:05.918Z,35
2017-04-22T01:57:05.952Z,35.1
2017-04-22T01:58:05.659Z,34.8
2017-04-22T01:59:06.008Z,35.1
2017-04-22T02:00:06.030Z,34.8
2017-04-22T02:01:06.059Z,35.1
2017-04-22T02:02:05.791Z,35.38
2017-04-22T02:03:06.113Z,34.8
2017-04-22T02:04:06.134Z,34.8
2017-04-22T02:05:05.854Z,35.38
2017-04-22T02:06:06.190Z,35
2017-04-22T02:07:06.216Z,35
2017-04-22T02:08:06.240Z,35.1
2017-04-22T02:09:06.272Z,35
2017-04-22T02:10:05.981Z,35.1
2017-04-22T02:11:06.326Z,35.1
2017-04-22T02:12:06.163Z,35.1
2017-04-22T02:13:06.384Z,35.1
2017-04-22T02:14:06.402Z,35.1
2017-04-22T02:15:06.434Z,35.19
2017-04-22T02:16:06.458Z,35.1
2017-04-22T02:17:06.483Z,34.8
2017-04-22T02:18:06.512Z,34.9
2017-04-22T02:19:06.545Z,35.1
2017-04-22T02:20:06.566Z,35.19
2017-04-22T02:21:06.593Z,34.9
2017-04-22T02:22:06.615Z,35.1
2017-04-22T02:23:06.344Z,35.1
2017-04-22T02:24:06.672Z,34.98
2017-04-22T02:25:06.701Z,35
2017-04-22T02:26:06.725Z,35.38
2017-04-22T02:27:06.753Z,35.38
2017-04-22T02:28:06.467Z,35
2017-04-22T02:29:06.804Z,34.9
2017-04-22T02:30:06.833Z,34.9
2017-04-22T02:31:06.862Z,34.9
2017-04-22T02:32:06.881Z,34.9
2017-04-22T02:33:06.918Z,35.28
2017-04-22T02:34:06.934Z,34.9
2017-04-22T02:35:07.220Z,35.1
2017-04-22T02:36:06.681Z,35.28
2017-04-22T02:37:07.019Z,35
2017-04-22T02:38:06.730Z,34.9
2017-04-22T02:39:06.756Z,35.1
2017-04-22T02:40:07.347Z,35.1
2017-04-22T02:41:07.129Z,34.9
2017-04-22T02:42:07.154Z,35.19
2017-04-22T02:43:07.183Z,34.7
2017-04-22T02:44:07.203Z,34.98
2017-04-22T02:45:07.487Z,34.9
2017-04-22T02:46:07.257Z,35.1
2017-04-22T02:47:07.286Z,35
2017-04-22T02:48:07.306Z,34.7
2017-04-22T02:49:07.024Z,35.1
2017-04-22T02:50:07.303Z,35.19
2017-04-22T02:51:07.388Z,35.1
2017-04-22T02:52:07.420Z,34.8
2017-04-22T02:53:07.131Z,35
2017-04-22T02:54:07.474Z,35.17
2017-04-22T02:55:07.759Z,34.9
2017-04-22T02:56:07.524Z,34.9
2017-04-22T02:57:07.544Z,35.1
2017-04-22T02:58:07.267Z,34.9
2017-04-22T02:59:07.603Z,34.88
2017-04-22T03:00:07.333Z,34.9
2017-04-22T03:01:07.658Z,34.88
2017-04-22T03:02:07.685Z,34.88
2017-04-22T03:03:07.709Z,34.9
2017-04-22T03:04:07.740Z,35.17
2017-04-22T03:05:07.452Z,35.17
2017-04-22T03:06:07.791Z,34.88
2017-04-22T03:07:07.816Z,35.19
2017-04-22T03:08:07.534Z,34.88
2017-04-22T03:09:07.871Z,34.88
2017-04-22T03:10:07.902Z,34.88
2017-04-22T03:11:08.098Z,34.88
2017-04-22T03:12:07.956Z,35.17
2017-04-22T03:13:07.669Z,35.08
2017-04-22T03:14:08.008Z,34.7
2017-04-22T03:15:08.026Z,35.08
2017-04-22T03:16:08.053Z,34.98
2017-04-22T03:17:08.084Z,35.38
2017-04-22T03:18:08.121Z,34.78
2017-04-22T03:19:07.822Z,34.88
2017-04-22T03:20:07.854Z,34.98
2017-04-22T03:21:07.879Z,34.88
2017-04-22T03:22:08.226Z,34.69
2017-04-22T03:23:08.251Z,34.88
2017-04-22T03:24:08.275Z,34.98
2017-04-22T03:25:08.305Z,34.88
2017-04-22T03:26:08.331Z,34.88
2017-04-22T03:27:08.357Z,35.17
2017-04-22T03:28:08.556Z,34.88
2017-04-22T03:29:08.411Z,34.88
2017-04-22T03:30:08.434Z,34.98
2017-04-22T03:31:08.463Z,34.78
2017-04-22T03:32:08.173Z,34.69
2017-04-22T03:33:08.526Z,34.78
2017-04-22T03:34:08.541Z,34.88
2017-04-22T03:35:08.568Z,34.98
2017-04-22T03:36:08.278Z,35.08
2017-04-22T03:37:08.615Z,35.08
2017-04-22T03:38:08.649Z,35.08
2017-04-22T03:39:08.674Z,34.69
2017-04-22T03:40:08.702Z,34.88
2017-04-22T03:41:08.731Z,34.88
2017-04-22T03:42:08.759Z,34.88
2017-04-22T03:43:08.775Z,34.69
2017-04-22T03:44:08.810Z,34.88
2017-04-22T03:45:08.526Z,35.08
2017-04-22T03:46:08.861Z,35.17
2017-04-22T03:47:08.888Z,34.98
2017-04-22T03:48:08.916Z,34.88
2017-04-22T03:49:09.025Z,34.88
2017-04-22T03:50:08.658Z,34.88
2017-04-22T03:51:08.991Z,34.78
2017-04-22T03:52:09.023Z,35.17
2017-04-22T03:53:09.043Z,35.17
2017-04-22T03:54:09.075Z,35.08
2017-04-22T03:55:09.098Z,35.08
2017-04-22T03:56:09.122Z,35.17
2017-04-22T03:57:09.156Z,34.88
2017-04-22T03:58:09.179Z,35.46
2017-04-22T03:59:08.896Z,34.88
2017-04-22T04:00:09.232Z,35.17
2017-04-22T04:01:09.259Z,35.08
2017-04-22T04:02:09.287Z,34.88
2017-04-22T04:03:09.000Z,35.17
2017-04-22T04:04:09.036Z,35.08
2017-04-22T04:05:09.366Z,34.78
2017-04-22T04:06:09.389Z,34.78
2017-04-22T04:07:09.423Z,34.78
2017-04-22T04:08:09.444Z,34.98
2017-04-22T04:09:09.476Z,35.08
2017-04-22T04:10:09.502Z,34.88
2017-04-22T04:11:09.774Z,35.08
2017-04-22T04:12:09.243Z,34.98
2017-04-22T04:13:09.266Z,34.88
2017-04-22T04:14:09.603Z,34.88
2017-04-22T04:15:09.318Z,34.88
2017-04-22T04:16:09.910Z,35.17
2017-04-22T04:17:09.375Z,34.78
2017-04-22T04:18:09.720Z,34.78
2017-04-22T04:19:09.736Z,35.46
2017-04-22T04:20:09.764Z,35.17
2017-04-22T04:21:10.045Z,35.08
2017-04-22T04:22:09.822Z,34.88
2017-04-22T04:23:09.843Z,35.27
2017-04-22T04:24:09.866Z,35.08
2017-04-22T04:25:09.629Z,35.46
2017-04-22T04:26:10.174Z,34.88
2017-04-22T04:27:09.954Z,34.98
2017-04-22T04:28:09.979Z,34.88
2017-04-22T04:29:10.003Z,34.88
2017-04-22T04:30:10.032Z,34.88
2017-04-22T04:31:10.310Z,34.59
2017-04-22T04:32:10.111Z,34.69
2017-04-22T04:33:09.794Z,35.27
2017-04-22T04:34:10.139Z,34.59
2017-04-22T04:35:10.164Z,34.98
2017-04-22T04:36:10.132Z,35.08
2017-04-22T04:37:10.214Z,34.69
2017-04-22T04:38:10.247Z,34.88
2017-04-22T04:39:10.276Z,34.78
2017-04-22T04:40:10.301Z,34.98
2017-04-22T04:41:10.260Z,35.08
2017-04-22T04:42:10.230Z,34.78
2017-04-22T04:43:10.384Z,34.98
2017-04-22T04:44:10.404Z,35.08
2017-04-22T04:45:10.436Z,35.17
2017-04-22T04:46:10.709Z,35.08
2017-04-22T04:47:10.485Z,34.98
2017-04-22T04:48:10.507Z,35.46
2017-04-22T04:49:10.539Z,35.08
2017-04-22T04:50:10.560Z,34.78
2017-04-22T04:51:10.531Z,35.08
2017-04-22T04:52:10.617Z,34.98
2017-04-22T04:53:10.650Z,34.78
2017-04-22T04:54:10.360Z,34.88
2017-04-22T04:55:10.700Z,35.36
2017-04-22T04:56:10.971Z,34.78
2017-04-22T04:57:10.437Z,34.98
2017-04-22T04:58:10.466Z,34.88
2017-04-22T04:59:10.803Z,34.88
2017-04-22T05:00:10.524Z,34.98
2017-04-22T05:01:11.111Z,35.36
2017-04-22T05:02:10.885Z,35.08
2017-04-22T05:03:10.910Z,34.88
2017-04-22T05:04:10.938Z,34.98
2017-04-22T05:05:10.648Z,34.88
2017-04-22T05:06:11.242Z,34.98
2017-04-22T05:07:11.017Z,34.88
2017-04-22T05:08:10.733Z,34.98
2017-04-22T05:09:11.074Z,35.08
2017-04-22T05:10:11.098Z,35.08
2017-04-22T05:11:11.375Z,35.08
2017-04-22T05:12:11.140Z,34.98
2017-04-22T05:13:11.178Z,35.46
2017-04-22T05:14:11.198Z,34.88
2017-04-22T05:15:11.227Z,34.78
2017-04-22T05:16:11.191Z,34.88
2017-04-22T05:17:11.276Z,34.88
2017-04-22T05:18:11.308Z,34.88
2017-04-22T05:19:11.026Z,34.98
2017-04-22T05:20:11.049Z,34.78
2017-04-22T05:21:11.638Z,34.98
2017-04-22T05:22:11.411Z,34.88
2017-04-22T05:23:11.128Z,35.08
2017-04-22T05:24:11.463Z,35.27
2017-04-22T05:25:11.494Z,35.17
2017-04-22T05:26:11.769Z,35.27
2017-04-22T05:27:11.230Z,35.17
2017-04-22T05:28:11.261Z,35.27
2017-04-22T05:29:11.602Z,35.27
2017-04-22T05:30:11.626Z,34.88
2017-04-22T05:31:11.655Z,34.98
2017-04-22T05:32:11.681Z,35.17
2017-04-22T05:33:11.701Z,35.17
2017-04-22T05:34:11.416Z,35.17
2017-04-22T05:35:11.762Z,35.94
2017-04-22T05:36:11.813Z,35.65
2017-04-22T05:37:11.494Z,35.75
2017-04-22T05:38:11.521Z,35.65
2017-04-22T05:39:11.865Z,36.23
2017-04-22T05:40:11.892Z,36.33
2017-04-22T05:41:11.912Z,36.23
2017-04-22T05:42:11.948Z,36.61
2017-04-22T05:43:11.972Z,36.52
2017-04-22T05:44:11.676Z,36.91
2017-04-22T05:45:12.024Z,36.91
2017-04-22T05:46:12.054Z,37.19
2017-04-22T05:47:11.758Z,37.48
2017-04-22T05:48:11.788Z,37.48
2017-04-22T05:49:12.146Z,37.48
2017-04-22T05:50:11.848Z,37.19
2017-04-22T05:51:12.178Z,37.1
2017-04-22T05:52:11.898Z,37.1
2017-04-22T05:53:12.238Z,37.58
2017-04-22T05:54:12.260Z,37.58
2017-04-22T05:55:12.285Z,37.68
2017-04-22T05:56:12.312Z,37.66
2017-04-22T05:57:12.342Z,38.14
2017-04-22T05:58:12.371Z,37.66
2017-04-22T05:59:12.399Z,38.14
2017-04-22T06:00:12.425Z,38.06
2017-04-22T06:01:12.444Z,37.96
2017-04-22T06:02:12.474Z,38.04
2017-04-22T06:03:12.506Z,38.14
2017-04-22T06:04:12.208Z,38.16
2017-04-22T06:05:12.235Z,37.68
2017-04-22T06:06:12.580Z,37.66
2017-04-22T06:07:12.609Z,37.95
2017-04-22T06:08:12.631Z,37.96
2017-04-22T06:09:12.662Z,37.56
2017-04-22T06:10:12.679Z,37.76
2017-04-22T06:11:12.720Z,37.37
2017-04-22T06:12:12.741Z,37.37
2017-04-22T06:13:12.766Z,38.14
2017-04-22T06:14:12.795Z,37.95
2017-04-22T06:15:12.812Z,37.85
2017-04-22T06:16:12.536Z,38.06
2017-04-22T06:17:12.873Z,38.14
2017-04-22T06:18:12.902Z,37.96
2017-04-22T06:19:12.926Z,37.95
2017-04-22T06:20:12.942Z,37.95
2017-04-22T06:21:12.988Z,37.95
2017-04-22T06:22:13.005Z,37.56
2017-04-22T06:23:12.728Z,37.58
2017-04-22T06:24:13.059Z,37.77
2017-04-22T06:25:12.783Z,37.58
2017-04-22T06:26:12.794Z,37.77
2017-04-22T06:27:13.139Z,37.68
2017-04-22T06:28:13.170Z,37.56
2017-04-22T06:29:13.195Z,37.66
2017-04-22T06:30:13.220Z,37.48
2017-04-22T06:31:13.235Z,37.48
2017-04-22T06:32:13.277Z,37.46
2017-04-22T06:33:13.298Z,37.56
2017-04-22T06:34:13.323Z,37.66
2017-04-22T06:35:13.350Z,37.66
2017-04-22T06:36:13.061Z,37.46
2017-04-22T06:37:13.403Z,37.56
2017-04-22T06:38:13.434Z,37.46
2017-04-22T06:39:13.147Z,37.48
2017-04-22T06:40:13.476Z,37.18
2017-04-22T06:41:13.192Z,37.76
2017-04-22T06:42:13.537Z,37.37
2017-04-22T06:43:13.561Z,37.19
2017-04-22T06:44:13.590Z,37.37
2017-04-22T06:45:13.635Z,37.19
2017-04-22T06:46:13.639Z,37.48
2017-04-22T06:47:13.354Z,37.48
2017-04-22T06:48:13.748Z,37.39
2017-04-22T06:49:13.722Z,37.1
2017-04-22T06:50:13.746Z,37.1
2017-04-22T06:51:13.772Z,37.29
2017-04-22T06:52:13.802Z,37.27
2017-04-22T06:53:13.829Z,37.48
2017-04-22T06:54:13.854Z,37.29
2017-04-22T06:55:13.570Z,37.27
2017-04-22T06:56:13.904Z,37.18
2017-04-22T06:57:13.936Z,37.18
2017-04-22T06:58:13.960Z,37.27
2017-04-22T06:59:13.673Z,37.27
2017-04-22T07:00:14.014Z,37.58
2017-04-22T07:01:14.038Z,37.27
2017-04-22T07:02:14.069Z,37.58
2017-04-22T07:03:14.085Z,37.48
2017-04-22T07:04:14.124Z,37.01
2017-04-22T07:05:14.143Z,37.39
2017-04-22T07:06:14.176Z,37.29
2017-04-22T07:07:14.197Z,37.48
2017-04-22T07:08:14.229Z,37.27
2017-04-22T07:09:13.942Z,37.29
2017-04-22T07:10:14.321Z,37.19
2017-04-22T07:11:14.303Z,37.29
2017-04-22T07:12:14.020Z,37.18
2017-04-22T07:13:14.360Z,37.1
2017-04-22T07:14:14.385Z,37.29
2017-04-22T07:15:14.102Z,37.29
2017-04-22T07:16:14.199Z,37.29
2017-04-22T07:17:14.474Z,37.39
2017-04-22T07:18:14.177Z,37.58
2017-04-22T07:19:14.204Z,37.1
2017-04-22T07:20:14.542Z,36.91
2017-04-22T07:21:14.571Z,37.39
2017-04-22T07:22:14.789Z,37.58
2017-04-22T07:23:14.624Z,37.1
2017-04-22T07:24:14.650Z,37.58
2017-04-22T07:25:14.673Z,37.48
2017-04-22T07:26:14.708Z,37.48
2017-04-22T07:27:14.980Z,37.1
2017-04-22T07:28:14.760Z,37.1
2017-04-22T07:29:14.780Z,36.91
2017-04-22T07:30:14.809Z,36.91
2017-04-22T07:31:14.838Z,37.19
2017-04-22T07:32:14.795Z,37.19
2017-04-22T07:33:14.573Z,36.91
2017-04-22T07:34:14.609Z,37.1
2017-04-22T07:35:14.950Z,36.61
2017-04-22T07:36:14.966Z,37.01
2017-04-22T07:37:15.249Z,36.81
2017-04-22T07:38:15.020Z,36.91
2017-04-22T07:39:15.053Z,36.71
2017-04-22T07:40:15.065Z,36.52
2017-04-22T07:41:14.786Z,36.71
2017-04-22T07:42:15.543Z,36.23
2017-04-22T07:43:15.148Z,36.52
2017-04-22T07:44:15.184Z,36.52
2017-04-22T07:45:15.204Z,36.71
2017-04-22T07:46:15.238Z,36.71
2017-04-22T07:47:15.202Z,36.71
2017-04-22T07:48:15.291Z,36.81
2017-04-22T07:49:15.317Z,36.71
2017-04-22T07:50:15.336Z,36.33
2017-04-22T07:51:15.372Z,36.61
2017-04-22T07:52:15.332Z,36.71
2017-04-22T07:53:15.422Z,36.81
2017-04-22T07:54:15.132Z,36.43
2017-04-22T07:55:15.477Z,36.81
2017-04-22T07:56:15.186Z,37.01
2017-04-22T07:57:15.773Z,36.81
2017-04-22T07:58:15.558Z,36.71
2017-04-22T07:59:15.273Z,36.52
2017-04-22T08:00:15.608Z,36.91
2017-04-22T08:01:15.625Z,36.91
2017-04-22T08:02:15.914Z,36.71
2017-04-22T08:03:15.692Z,36.61
2017-04-22T08:04:15.720Z,37.01
2017-04-22T08:05:15.740Z,37.01
2017-04-22T08:06:15.765Z,36.81
2017-04-22T08:07:15.794Z,36.81
2017-04-22T08:08:15.506Z,36.91
2017-04-22T08:09:15.848Z,36.81
2017-04-22T08:10:15.876Z,36.81
2017-04-22T08:11:15.901Z,36.91
2017-04-22T08:12:15.610Z,37.01
2017-04-22T08:13:15.981Z,37.01
2017-04-22T08:14:15.984Z,37.48
2017-04-22T08:15:16.010Z,37.29
2017-04-22T08:16:16.037Z,37.29
2017-04-22T08:17:15.756Z,37.68
2017-04-22T08:18:16.086Z,38.06
2017-04-22T08:19:15.807Z,37.39
2017-04-22T08:20:16.183Z,37.7
2017-04-22T08:21:15.860Z,37.98
2017-04-22T08:22:16.194Z,37.89
2017-04-22T08:23:16.227Z,38.08
2017-04-22T08:24:16.247Z,38.46
2017-04-22T08:25:16.281Z,38.66
2017-04-22T08:26:16.299Z,38.66
2017-04-22T08:27:16.326Z,38.46
2017-04-22T08:28:16.351Z,38.95
2017-04-22T08:29:16.077Z,39.14
2017-04-22T08:30:16.417Z,38.37
2017-04-22T08:31:16.441Z,38.46
2017-04-22T08:32:16.474Z,38.95
2017-04-22T08:33:16.202Z,38.95
2017-04-22T08:34:16.516Z,38.76
2017-04-22T08:35:16.547Z,38.85
2017-04-22T08:36:16.573Z,38.76
2017-04-22T08:37:16.597Z,38.76
2017-04-22T08:38:16.622Z,38.76
2017-04-22T08:39:16.650Z,38.37
2017-04-22T08:40:16.679Z,38.08
2017-04-22T08:41:16.711Z,37.98
2017-04-22T08:42:16.737Z,38.39
2017-04-22T08:43:16.764Z,38.28
2017-04-22T08:44:16.792Z,38.56
2017-04-22T08:45:16.812Z,37.7
2017-04-22T08:46:16.527Z,38.01
2017-04-22T08:47:16.573Z,37.98
2017-04-22T08:48:16.589Z,37.81
2017-04-22T08:49:16.920Z,37.89
2017-04-22T08:50:16.955Z,37.81
2017-04-22T08:51:16.975Z,37.43
2017-04-22T08:52:17.005Z,37.43
2017-04-22T08:53:17.030Z,37.81
2017-04-22T08:54:17.063Z,37.43
2017-04-22T08:55:17.094Z,38.1
2017-04-22T08:56:16.799Z,37.91
2017-04-22T08:57:16.829Z,37.62
2017-04-22T08:58:16.856Z,37.71
2017-04-22T08:59:17.200Z,37.62
2017-04-22T09:00:17.225Z,37.04
2017-04-22T09:01:17.251Z,37.33
2017-04-22T09:02:17.275Z,37.33
2017-04-22T09:03:17.301Z,37.43
2017-04-22T09:04:17.334Z,37.52
2017-04-22T09:05:17.055Z,37.71
2017-04-22T09:06:17.394Z,37.52
2017-04-22T09:07:17.105Z,37.52
2017-04-22T09:08:17.698Z,37.43
2017-04-22T09:09:17.162Z,37.52
2017-04-22T09:10:17.185Z,37.23
2017-04-22T09:11:17.211Z,37.33
2017-04-22T09:12:17.257Z,37.13
2017-04-22T09:13:17.851Z,36.75
2017-04-22T09:14:17.606Z,36.65
2017-04-22T09:15:17.635Z,36.96
2017-04-22T09:16:17.660Z,36.67
2017-04-22T09:17:17.692Z,36.67
2017-04-22T09:18:17.733Z,36.57
2017-04-22T09:19:17.746Z,36.55
2017-04-22T09:20:17.792Z,36.65
2017-04-22T09:21:17.487Z,36.67
2017-04-22T09:22:17.825Z,36.38
2017-04-22T09:23:18.153Z,36.67
2017-04-22T09:24:17.877Z,36.77
2017-04-22T09:25:17.599Z,36.57
2017-04-22T09:26:17.939Z,36.19
2017-04-22T09:27:17.960Z,36.19
2017-04-22T09:28:18.245Z,36.29
2017-04-22T09:29:17.701Z,36.38
2017-04-22T09:30:17.730Z,36.48
2017-04-22T09:31:18.074Z,36.38
2017-04-22T09:32:18.113Z,36.29
2017-04-22T09:33:18.071Z,36.48
2017-04-22T09:34:17.841Z,36.57
2017-04-22T09:35:18.182Z,36.38
2017-04-22T09:36:17.893Z,36.38
2017-04-22T09:37:17.922Z,36.48
2017-04-22T09:38:18.516Z,36.09
2017-04-22T09:39:18.295Z,36.38
2017-04-22T09:40:18.326Z,36.19
2017-04-22T09:41:18.346Z,36.29
2017-04-22T09:42:18.378Z,36.38
2017-04-22T09:43:18.335Z,36.19
2017-04-22T09:44:18.429Z,36.38
2017-04-22T09:45:18.457Z,36.38
2017-04-22T09:46:18.169Z,36.19
2017-04-22T09:47:18.510Z,36.29
2017-04-22T09:48:18.797Z,36.09
2017-04-22T09:49:18.578Z,36.09
2017-04-22T09:50:18.597Z,36.38
2017-04-22T09:51:18.625Z,36.29
2017-04-22T09:52:18.651Z,36.38
2017-04-22T09:53:18.930Z,36.3
2017-04-22T09:54:18.709Z,36.3
2017-04-22T09:55:18.731Z,36.29
2017-04-22T09:56:18.763Z,36.09
2017-04-22T09:57:18.783Z,36.09
2017-04-22T09:58:18.820Z,36.09
2017-04-22T09:59:18.850Z,36.19
2017-04-22T10:00:18.873Z,36.01
2017-04-22T10:01:18.593Z,35.71
2017-04-22T10:02:18.970Z,35.9
2017-04-22T10:03:18.956Z,35.8
2017-04-22T10:04:18.996Z,35.82
2017-04-22T10:05:19.013Z,35.72
2017-04-22T10:06:18.729Z,36.29
2017-04-22T10:07:19.061Z,36.4
2017-04-22T10:08:18.779Z,36.5
2017-04-22T10:09:19.132Z,36.21
2017-04-22T10:10:19.177Z,36.11
2017-04-22T10:11:19.172Z,36.21
2017-04-22T10:12:18.896Z,36.21
2017-04-22T10:13:19.229Z,35.92
2017-04-22T10:14:19.262Z,36.01
2017-04-22T10:15:18.981Z,35.92
2017-04-22T10:16:19.326Z,36.11
2017-04-22T10:17:19.352Z,36.21
2017-04-22T10:18:19.382Z,36.11
2017-04-22T10:19:19.404Z,35.92
2017-04-22T10:20:19.437Z,36.21
2017-04-22T10:21:19.461Z,36.11
2017-04-22T10:22:19.485Z,35.82
2017-04-22T10:23:19.197Z,35.82
2017-04-22T10:24:19.538Z,35.72
2017-04-22T10:25:19.563Z,36.11
2017-04-22T10:26:19.285Z,36.3
2017-04-22T10:27:19.319Z,36.09
2017-04-22T10:28:19.662Z,36.48
2017-04-22T10:29:19.686Z,36.57
2017-04-22T10:30:19.542Z,36.77
2017-04-22T10:31:19.735Z,36.67
2017-04-22T10:32:19.464Z,36.57
2017-04-22T10:33:19.478Z,36.77
2017-04-22T10:34:19.824Z,36.77
2017-04-22T10:35:19.539Z,36.77
2017-04-22T10:36:19.563Z,36.87
2017-04-22T10:37:19.587Z,36.38
2017-04-22T10:38:19.926Z,36.19
2017-04-22T10:39:19.651Z,36.48
2017-04-22T10:40:19.679Z,36.57
2017-04-22T10:41:20.011Z,36.19
2017-04-22T10:42:20.045Z,36.19
2017-04-22T10:43:20.081Z,36.09
2017-04-22T10:44:20.097Z,36.48
2017-04-22T10:45:20.132Z,36.38
2017-04-22T10:46:19.834Z,36.38
2017-04-22T10:47:20.185Z,36.57
2017-04-22T10:48:20.205Z,36.57
2017-04-22T10:49:20.248Z,36.67
2017-04-22T10:50:20.265Z,36.57
2017-04-22T10:51:20.328Z,36.77
2017-04-22T10:52:20.324Z,36.87
2017-04-22T10:53:20.341Z,36.57
2017-04-22T10:54:20.378Z,36.77
2017-04-22T10:55:20.403Z,36.77
2017-04-22T10:56:20.127Z,36.67
2017-04-22T10:57:20.454Z,36.67
2017-04-22T10:58:20.482Z,36.48
2017-04-22T10:59:20.207Z,36.85
2017-04-22T11:00:20.224Z,36.77
2017-04-22T11:01:20.575Z,37.25
2017-04-22T11:02:20.601Z,37.25
2017-04-22T11:03:20.633Z,37.15
2017-04-22T11:04:20.346Z,36.94
2017-04-22T11:05:20.678Z,37.06
2017-04-22T11:06:20.711Z,37.25
2017-04-22T11:07:20.736Z,37.25
2017-04-22T11:08:20.756Z,37.06
2017-04-22T11:09:20.793Z,37.23
2017-04-22T11:10:20.527Z,37.25
2017-04-22T11:11:20.851Z,36.57
2017-04-22T11:12:20.871Z,37.13
2017-04-22T11:13:20.905Z,37.04
2017-04-22T11:14:20.932Z,37.13
2017-04-22T11:15:20.646Z,37.23
2017-04-22T11:16:20.986Z,37.04
2017-04-22T11:17:20.703Z,36.85
2017-04-22T11:18:21.036Z,36.75
2017-04-22T11:19:21.068Z,36.75
2017-04-22T11:20:21.097Z,36.85
2017-04-22T11:21:21.126Z,36.75
2017-04-22T11:22:20.836Z,36.85
2017-04-22T11:23:20.865Z,37.23
2017-04-22T11:24:21.213Z,37.04
2017-04-22T11:25:21.239Z,37.04
2017-04-22T11:26:21.285Z,37.43
2017-04-22T11:27:21.000Z,37.62
2017-04-22T11:28:21.325Z,37.04
2017-04-22T11:29:21.344Z,37.33
2017-04-22T11:30:21.378Z,37.52
2017-04-22T11:31:21.402Z,37.62
2017-04-22T11:32:21.427Z,37.43
2017-04-22T11:33:21.448Z,37.71
2017-04-22T11:34:21.736Z,37.62
2017-04-22T11:35:21.509Z,37.62
2017-04-22T11:36:21.538Z,37.62
2017-04-22T11:37:21.567Z,37.71
2017-04-22T11:38:21.592Z,37.91
2017-04-22T11:39:21.864Z,37.52
2017-04-22T11:40:21.660Z,37.71
2017-04-22T11:41:21.674Z,37.71
2017-04-22T11:42:21.390Z,37.81
2017-04-22T11:43:21.728Z,38.01
2017-04-22T11:44:22.007Z,37.91
2017-04-22T11:45:21.786Z,38.2
2017-04-22T11:46:21.812Z,38.1
2017-04-22T11:47:21.526Z,37.62
2017-04-22T11:48:21.867Z,38.1
2017-04-22T11:49:22.148Z,38.1
2017-04-22T11:50:21.608Z,37.91
2017-04-22T11:51:21.955Z,37.81
2017-04-22T11:52:21.968Z,37.91
2017-04-22T11:53:21.687Z,38.01
2017-04-22T11:54:21.967Z,37.79
2017-04-22T11:55:22.056Z,37.71
2017-04-22T11:56:21.769Z,37.7
2017-04-22T11:57:22.155Z,37.71
2017-04-22T11:58:22.139Z,37.98
2017-04-22T11:59:22.410Z,37.91
2017-04-22T12:00:21.877Z,37.98
2017-04-22T12:01:22.217Z,37.91
2017-04-22T12:02:21.934Z,38.2
2017-04-22T12:03:22.270Z,38.08
2017-04-22T12:04:22.546Z,37.89
2017-04-22T12:05:22.332Z,38.1
2017-04-22T12:06:22.202Z,37.89
2017-04-22T12:07:22.419Z,38.1
2017-04-22T12:08:22.415Z,38.01
2017-04-22T12:09:22.695Z,37.7
2017-04-22T12:10:22.468Z,37.98
2017-04-22T12:11:22.492Z,38.08
2017-04-22T12:12:22.520Z,38.2
2017-04-22T12:13:22.557Z,38.1
2017-04-22T12:14:22.832Z,37.71
2017-04-22T12:15:22.293Z,38.37
2017-04-22T12:16:22.628Z,38.39
2017-04-22T12:17:22.657Z,38.2
2017-04-22T12:18:22.680Z,38.37
2017-04-22T12:19:22.961Z,38.18
2017-04-22T12:20:22.732Z,38.28
2017-04-22T12:21:22.453Z,38.29
2017-04-22T12:22:22.805Z,38.08
2017-04-22T12:23:22.809Z,38.29
2017-04-22T12:24:22.842Z,37.79
2017-04-22T12:25:22.871Z,38.46
2017-04-22T12:26:22.904Z,38.37
2017-04-22T12:27:22.926Z,38.28
2017-04-22T12:28:22.951Z,38.37
2017-04-22T12:29:22.981Z,38.46
2017-04-22T12:30:22.995Z,38.18
2017-04-22T12:31:23.060Z,38.46
2017-04-22T12:32:23.056Z,38.97
2017-04-22T12:33:23.122Z,38.56
2017-04-22T12:34:23.110Z,38.56
2017-04-22T12:35:23.143Z,38.66
2017-04-22T12:36:23.166Z,39.04
2017-04-22T12:37:22.884Z,38.49
2017-04-22T12:38:22.912Z,38.37
2017-04-22T12:39:23.250Z,38.39
2017-04-22T12:40:23.281Z,38.37
2017-04-22T12:41:22.995Z,38.37
2017-04-22T12:42:23.024Z,38.46
2017-04-22T12:43:23.060Z,38.46
2017-04-22T12:44:23.390Z,39.04
2017-04-22T12:45:23.418Z,38.97
2017-04-22T12:46:23.132Z,38.76
2017-04-22T12:47:23.471Z,38.95
2017-04-22T12:48:23.495Z,38.49
2017-04-22T12:49:23.526Z,38.46
2017-04-22T12:50:23.246Z,38.46
2017-04-22T12:51:23.578Z,38.85
2017-04-22T12:52:23.611Z,38.95
2017-04-22T12:53:23.639Z,39.34
2017-04-22T12:54:23.665Z,39.24
2017-04-22T12:55:23.690Z,39.06
2017-04-22T12:56:23.718Z,39.24
2017-04-22T12:57:23.744Z,38.66
2017-04-22T12:58:23.782Z,38.95